sensor_id;sensor_type;location;lat;lon;timestamp;temperature;humidity
11991;DHT22;6055;52.522;13.446;2022-11-15T00:00:45;6.50;99.90
11991;DHT22;6055;52.522;13.446;2022-11-15T00:03:13;6.50;99.90
11991;DHT22;6055;52.522;13.446;2022-11-15T00:05:39;6.50;99.90
11991;DHT22;6055;52.522;13.446;2022-11-15T00:08:04;6.50;99.90
11991;DHT22;6055;52.522;13.446;2022-11-15T00:10:30;6.50;99.90
11991;DHT22;6055;52.522;13.446;2022-11-15T00:12:55;6.50;99.90
11991;DHT22;6055;52.522;13.446;2022-11-15T00:15:20;6.50;99.90
11991;DHT22;6055;52.522;13.446;2022-11-15T00:17:49;6.40;99.90
11991;DHT22;6055;52.522;13.446;2022-11-15T00:20:14;6.40;99.90
11991;DHT22;6055;52.522;13.446;2022-11-15T00:22:40;6.40;99.90
11991;DHT22;6055;52.522;13.446;2022-11-15T00:25:06;6.40;99.90
11991;DHT22;6055;52.522;13.446;2022-11-15T00:27:31;6.40;99.90
11991;DHT22;6055;52.522;13.446;2022-11-15T00:29:57;6.40;99.90
11991;DHT22;6055;52.522;13.446;2022-11-15T00:32:22;6.40;99.90
11991;DHT22;6055;52.522;13.446;2022-11-15T00:34:47;6.30;99.90
11991;DHT22;6055;52.522;13.446;2022-11-15T00:37:13;6.30;99.90
11991;DHT22;6055;52.522;13.446;2022-11-15T00:39:38;6.30;99.90
11991;DHT22;6055;52.522;13.446;2022-11-15T00:42:04;6.30;99.90
11991;DHT22;6055;52.522;13.446;2022-11-15T00:44:29;6.30;99.90
11991;DHT22;6055;52.522;13.446;2022-11-15T00:46:55;6.30;99.90
11991;DHT22;6055;52.522;13.446;2022-11-15T00:49:20;6.30;99.90
11991;DHT22;6055;52.522;13.446;2022-11-15T00:51:46;6.30;99.90
11991;DHT22;6055;52.522;13.446;2022-11-15T00:54:11;6.20;99.90
11991;DHT22;6055;52.522;13.446;2022-11-15T00:56:37;6.30;99.90
11991;DHT22;6055;52.522;13.446;2022-11-15T00:59:02;6.20;99.90
11991;DHT22;6055;52.522;13.446;2022-11-15T01:01:28;6.20;99.90
11991;DHT22;6055;52.522;13.446;2022-11-15T01:03:53;6.20;99.90
11991;DHT22;6055;52.522;13.446;2022-11-15T01:06:19;6.20;99.90
11991;DHT22;6055;52.522;13.446;2022-11-15T01:08:44;6.20;99.90
11991;DHT22;6055;52.522;13.446;2022-11-15T01:11:11;6.20;99.90
11991;DHT22;6055;52.522;13.446;2022-11-15T01:13:38;6.20;99.90
11991;DHT22;6055;52.522;13.446;2022-11-15T01:16:09;6.20;99.90
11991;DHT22;6055;52.522;13.446;2022-11-15T01:18:35;6.20;99.90
11991;DHT22;6055;52.522;13.446;2022-11-15T01:21:15;6.10;99.90
11991;DHT22;6055;52.522;13.446;2022-11-15T01:23:41;6.10;99.90
11991;DHT22;6055;52.522;13.446;2022-11-15T01:26:10;6.10;99.90
11991;DHT22;6055;52.522;13.446;2022-11-15T01:28:38;6.10;99.90
11991;DHT22;6055;52.522;13.446;2022-11-15T01:31:06;6.10;99.90
11991;DHT22;6055;52.522;13.446;2022-11-15T01:33:35;6.10;99.90
11991;DHT22;6055;52.522;13.446;2022-11-15T01:36:04;6.10;99.90
11991;DHT22;6055;52.522;13.446;2022-11-15T01:38:30;6.10;99.90
11991;DHT22;6055;52.522;13.446;2022-11-15T01:42:20;6.00;99.90
11991;DHT22;6055;52.522;13.446;2022-11-15T01:44:52;6.00;99.90
11991;DHT22;6055;52.522;13.446;2022-11-15T01:47:25;6.00;99.90
11991;DHT22;6055;52.522;13.446;2022-11-15T01:50:02;6.10;99.90
11991;DHT22;6055;52.522;13.446;2022-11-15T01:52:31;6.10;99.90
11991;DHT22;6055;52.522;13.446;2022-11-15T01:55:09;6.00;99.90
11991;DHT22;6055;52.522;13.446;2022-11-15T01:57:36;6.00;99.90
11991;DHT22;6055;52.522;13.446;2022-11-15T02:00:04;6.00;99.90
11991;DHT22;6055;52.522;13.446;2022-11-15T02:02:30;6.00;99.90
11991;DHT22;6055;52.522;13.446;2022-11-15T02:04:55;6.00;99.90
11991;DHT22;6055;52.522;13.446;2022-11-15T02:07:22;6.00;99.90
11991;DHT22;6055;52.522;13.446;2022-11-15T02:09:48;6.00;99.90
11991;DHT22;6055;52.522;13.446;2022-11-15T02:12:17;6.00;99.90
11991;DHT22;6055;52.522;13.446;2022-11-15T02:14:48;6.00;99.90
11991;DHT22;6055;52.522;13.446;2022-11-15T02:17:50;6.00;99.90
11991;DHT22;6055;52.522;13.446;2022-11-15T02:20:52;6.00;99.90
11991;DHT22;6055;52.522;13.446;2022-11-15T02:26:42;5.90;99.90
11991;DHT22;6055;52.522;13.446;2022-11-15T02:29:16;5.90;99.90
11991;DHT22;6055;52.522;13.446;2022-11-15T02:32:09;5.90;99.90
11991;DHT22;6055;52.522;13.446;2022-11-15T02:35:03;5.90;99.90
11991;DHT22;6055;52.522;13.446;2022-11-15T02:37:57;5.90;99.90
11991;DHT22;6055;52.522;13.446;2022-11-15T02:43:18;5.90;99.90
11991;DHT22;6055;52.522;13.446;2022-11-15T02:46:19;5.90;99.90
11991;DHT22;6055;52.522;13.446;2022-11-15T02:48:49;5.90;99.90
11991;DHT22;6055;52.522;13.446;2022-11-15T02:51:15;5.90;99.90
11991;DHT22;6055;52.522;13.446;2022-11-15T02:53:41;5.90;99.90
11991;DHT22;6055;52.522;13.446;2022-11-15T02:56:09;5.90;99.90
11991;DHT22;6055;52.522;13.446;2022-11-15T02:58:53;5.90;99.90
11991;DHT22;6055;52.522;13.446;2022-11-15T03:01:51;5.90;99.90
11991;DHT22;6055;52.522;13.446;2022-11-15T03:04:43;5.90;99.90
11991;DHT22;6055;52.522;13.446;2022-11-15T03:07:18;5.90;99.90
11991;DHT22;6055;52.522;13.446;2022-11-15T03:10:17;5.90;99.90
11991;DHT22;6055;52.522;13.446;2022-11-15T03:12:59;5.90;99.90
11991;DHT22;6055;52.522;13.446;2022-11-15T03:15:37;5.90;99.90
11991;DHT22;6055;52.522;13.446;2022-11-15T03:18:20;5.80;99.90
11991;DHT22;6055;52.522;13.446;2022-11-15T03:20:47;5.90;99.90
11991;DHT22;6055;52.522;13.446;2022-11-15T03:23:13;5.80;99.90
11991;DHT22;6055;52.522;13.446;2022-11-15T03:25:45;5.90;99.90
11991;DHT22;6055;52.522;13.446;2022-11-15T03:28:18;5.90;99.90
11991;DHT22;6055;52.522;13.446;2022-11-15T03:30:46;5.80;99.90
11991;DHT22;6055;52.522;13.446;2022-11-15T03:33:13;5.80;99.90
11991;DHT22;6055;52.522;13.446;2022-11-15T03:35:42;5.90;99.90
11991;DHT22;6055;52.522;13.446;2022-11-15T03:38:21;5.80;99.90
11991;DHT22;6055;52.522;13.446;2022-11-15T03:41:06;5.80;99.90
11991;DHT22;6055;52.522;13.446;2022-11-15T03:43:40;5.80;99.90
11991;DHT22;6055;52.522;13.446;2022-11-15T03:46:14;5.80;99.90
11991;DHT22;6055;52.522;13.446;2022-11-15T03:48:49;5.80;99.90
11991;DHT22;6055;52.522;13.446;2022-11-15T03:51:16;5.80;99.90
11991;DHT22;6055;52.522;13.446;2022-11-15T03:53:41;5.80;99.90
11991;DHT22;6055;52.522;13.446;2022-11-15T03:56:07;5.80;99.90
11991;DHT22;6055;52.522;13.446;2022-11-15T03:58:32;5.80;99.90
11991;DHT22;6055;52.522;13.446;2022-11-15T04:00:58;5.80;99.90
11991;DHT22;6055;52.522;13.446;2022-11-15T04:03:25;5.80;99.90
11991;DHT22;6055;52.522;13.446;2022-11-15T04:05:50;5.80;99.90
11991;DHT22;6055;52.522;13.446;2022-11-15T04:08:16;5.80;99.90
11991;DHT22;6055;52.522;13.446;2022-11-15T04:10:41;5.80;99.90
11991;DHT22;6055;52.522;13.446;2022-11-15T04:13:07;5.80;99.90
11991;DHT22;6055;52.522;13.446;2022-11-15T04:15:33;5.80;99.90
11991;DHT22;6055;52.522;13.446;2022-11-15T04:17:58;5.80;99.90
11991;DHT22;6055;52.522;13.446;2022-11-15T04:20:27;5.80;99.90
11991;DHT22;6055;52.522;13.446;2022-11-15T04:23:16;5.80;99.90
11991;DHT22;6055;52.522;13.446;2022-11-15T04:26:05;5.70;99.90
11991;DHT22;6055;52.522;13.446;2022-11-15T04:28:32;5.70;99.90
11991;DHT22;6055;52.522;13.446;2022-11-15T04:30:58;5.70;99.90
11991;DHT22;6055;52.522;13.446;2022-11-15T04:33:23;5.70;99.90
11991;DHT22;6055;52.522;13.446;2022-11-15T04:35:49;5.70;99.90
11991;DHT22;6055;52.522;13.446;2022-11-15T04:38:34;5.70;99.90
11991;DHT22;6055;52.522;13.446;2022-11-15T04:41:00;5.70;99.90
11991;DHT22;6055;52.522;13.446;2022-11-15T04:43:25;5.70;99.90
11991;DHT22;6055;52.522;13.446;2022-11-15T04:45:51;5.70;99.90
11991;DHT22;6055;52.522;13.446;2022-11-15T04:48:16;5.70;99.90
11991;DHT22;6055;52.522;13.446;2022-11-15T04:50:42;5.70;99.90
11991;DHT22;6055;52.522;13.446;2022-11-15T04:53:07;5.70;99.90
11991;DHT22;6055;52.522;13.446;2022-11-15T04:55:33;5.70;99.90
11991;DHT22;6055;52.522;13.446;2022-11-15T04:58:02;5.70;99.90
11991;DHT22;6055;52.522;13.446;2022-11-15T05:00:28;5.70;99.90
11991;DHT22;6055;52.522;13.446;2022-11-15T05:02:55;5.70;99.90
11991;DHT22;6055;52.522;13.446;2022-11-15T05:05:39;5.70;99.90
11991;DHT22;6055;52.522;13.446;2022-11-15T05:08:04;5.70;99.90
11991;DHT22;6055;52.522;13.446;2022-11-15T05:10:30;5.60;99.90
11991;DHT22;6055;52.522;13.446;2022-11-15T05:12:55;5.70;99.90
11991;DHT22;6055;52.522;13.446;2022-11-15T05:15:21;5.70;99.90
11991;DHT22;6055;52.522;13.446;2022-11-15T05:17:47;5.70;99.90
11991;DHT22;6055;52.522;13.446;2022-11-15T05:20:12;5.60;99.90
11991;DHT22;6055;52.522;13.446;2022-11-15T05:22:38;5.70;99.90
11991;DHT22;6055;52.522;13.446;2022-11-15T05:25:04;5.60;99.90
11991;DHT22;6055;52.522;13.446;2022-11-15T05:27:29;5.60;99.90
11991;DHT22;6055;52.522;13.446;2022-11-15T05:29:55;5.60;99.90
11991;DHT22;6055;52.522;13.446;2022-11-15T05:32:20;5.70;99.90
11991;DHT22;6055;52.522;13.446;2022-11-15T05:34:46;5.60;99.90
11991;DHT22;6055;52.522;13.446;2022-11-15T05:37:12;5.60;99.90
11991;DHT22;6055;52.522;13.446;2022-11-15T05:39:38;5.70;99.90
11991;DHT22;6055;52.522;13.446;2022-11-15T05:42:10;5.60;99.90
11991;DHT22;6055;52.522;13.446;2022-11-15T05:44:38;5.70;99.90
11991;DHT22;6055;52.522;13.446;2022-11-15T05:47:06;5.70;99.90
11991;DHT22;6055;52.522;13.446;2022-11-15T05:49:35;5.70;99.90
11991;DHT22;6055;52.522;13.446;2022-11-15T05:52:04;5.60;99.90
11991;DHT22;6055;52.522;13.446;2022-11-15T05:54:31;5.60;99.90
11991;DHT22;6055;52.522;13.446;2022-11-15T05:56:57;5.70;99.90
11991;DHT22;6055;52.522;13.446;2022-11-15T05:59:23;5.70;99.90
11991;DHT22;6055;52.522;13.446;2022-11-15T06:01:48;5.70;99.90
11991;DHT22;6055;52.522;13.446;2022-11-15T06:04:14;5.70;99.90
11991;DHT22;6055;52.522;13.446;2022-11-15T06:06:40;5.70;99.90
11991;DHT22;6055;52.522;13.446;2022-11-15T06:09:05;5.70;99.90
11991;DHT22;6055;52.522;13.446;2022-11-15T06:11:30;5.70;99.90
11991;DHT22;6055;52.522;13.446;2022-11-15T06:13:56;5.60;99.90
11991;DHT22;6055;52.522;13.446;2022-11-15T06:16:21;5.70;99.90
11991;DHT22;6055;52.522;13.446;2022-11-15T06:18:47;5.70;99.90
11991;DHT22;6055;52.522;13.446;2022-11-15T06:21:12;5.60;99.90
11991;DHT22;6055;52.522;13.446;2022-11-15T06:23:38;5.60;99.90
11991;DHT22;6055;52.522;13.446;2022-11-15T06:26:03;5.60;99.90
11991;DHT22;6055;52.522;13.446;2022-11-15T06:28:32;5.60;99.90
11991;DHT22;6055;52.522;13.446;2022-11-15T06:31:07;5.70;99.90
11991;DHT22;6055;52.522;13.446;2022-11-15T06:33:32;5.70;99.90
11991;DHT22;6055;52.522;13.446;2022-11-15T06:36:02;5.70;99.90
11991;DHT22;6055;52.522;13.446;2022-11-15T06:38:28;5.70;99.90
11991;DHT22;6055;52.522;13.446;2022-11-15T06:40:53;5.70;99.90
11991;DHT22;6055;52.522;13.446;2022-11-15T06:43:19;5.70;99.90
11991;DHT22;6055;52.522;13.446;2022-11-15T06:45:44;5.70;99.90
11991;DHT22;6055;52.522;13.446;2022-11-15T06:48:10;5.80;99.90
11991;DHT22;6055;52.522;13.446;2022-11-15T06:50:35;5.80;99.90
11991;DHT22;6055;52.522;13.446;2022-11-15T06:53:04;5.80;99.90
11991;DHT22;6055;52.522;13.446;2022-11-15T06:55:29;5.80;99.90
11991;DHT22;6055;52.522;13.446;2022-11-15T06:57:55;5.90;99.90
11991;DHT22;6055;52.522;13.446;2022-11-15T07:00:21;5.90;99.90
11991;DHT22;6055;52.522;13.446;2022-11-15T07:02:48;5.90;99.90
11991;DHT22;6055;52.522;13.446;2022-11-15T07:05:15;5.90;99.90
11991;DHT22;6055;52.522;13.446;2022-11-15T07:07:40;5.90;99.90
11991;DHT22;6055;52.522;13.446;2022-11-15T07:10:06;5.90;99.90
11991;DHT22;6055;52.522;13.446;2022-11-15T07:12:32;6.00;99.90
11991;DHT22;6055;52.522;13.446;2022-11-15T07:14:58;6.00;99.90
11991;DHT22;6055;52.522;13.446;2022-11-15T07:17:23;6.00;99.90
11991;DHT22;6055;52.522;13.446;2022-11-15T07:19:49;6.00;99.90
11991;DHT22;6055;52.522;13.446;2022-11-15T07:22:14;6.00;99.90
11991;DHT22;6055;52.522;13.446;2022-11-15T07:24:40;6.00;99.90
11991;DHT22;6055;52.522;13.446;2022-11-15T07:27:05;6.00;99.90
11991;DHT22;6055;52.522;13.446;2022-11-15T07:29:31;6.00;99.90
11991;DHT22;6055;52.522;13.446;2022-11-15T07:31:56;6.10;99.90
11991;DHT22;6055;52.522;13.446;2022-11-15T07:34:22;6.10;99.90
11991;DHT22;6055;52.522;13.446;2022-11-15T07:36:48;6.10;99.90
11991;DHT22;6055;52.522;13.446;2022-11-15T07:39:14;6.10;99.90
11991;DHT22;6055;52.522;13.446;2022-11-15T07:41:40;6.20;99.90
11991;DHT22;6055;52.522;13.446;2022-11-15T07:44:05;6.20;99.90
11991;DHT22;6055;52.522;13.446;2022-11-15T07:46:31;6.30;99.90
11991;DHT22;6055;52.522;13.446;2022-11-15T07:48:56;6.30;99.90
11991;DHT22;6055;52.522;13.446;2022-11-15T07:51:22;6.30;99.90
11991;DHT22;6055;52.522;13.446;2022-11-15T07:53:47;6.40;99.90
11991;DHT22;6055;52.522;13.446;2022-11-15T07:56:13;6.40;99.90
11991;DHT22;6055;52.522;13.446;2022-11-15T07:58:39;6.50;99.90
11991;DHT22;6055;52.522;13.446;2022-11-15T08:01:09;6.50;99.90
11991;DHT22;6055;52.522;13.446;2022-11-15T08:03:35;6.50;99.90
11991;DHT22;6055;52.522;13.446;2022-11-15T08:06:01;6.60;99.90
11991;DHT22;6055;52.522;13.446;2022-11-15T08:08:27;6.60;99.90
11991;DHT22;6055;52.522;13.446;2022-11-15T08:10:52;6.60;99.90
11991;DHT22;6055;52.522;13.446;2022-11-15T08:13:18;6.70;99.90
11991;DHT22;6055;52.522;13.446;2022-11-15T08:15:43;6.70;99.90
11991;DHT22;6055;52.522;13.446;2022-11-15T08:18:12;6.70;99.90
11991;DHT22;6055;52.522;13.446;2022-11-15T08:20:38;6.80;99.90
11991;DHT22;6055;52.522;13.446;2022-11-15T08:23:04;6.80;99.90
11991;DHT22;6055;52.522;13.446;2022-11-15T08:25:31;6.90;99.90
11991;DHT22;6055;52.522;13.446;2022-11-15T08:27:59;6.90;99.90
11991;DHT22;6055;52.522;13.446;2022-11-15T08:30:25;6.90;99.90
11991;DHT22;6055;52.522;13.446;2022-11-15T08:32:51;7.00;99.90
11991;DHT22;6055;52.522;13.446;2022-11-15T08:35:18;7.00;99.90
11991;DHT22;6055;52.522;13.446;2022-11-15T08:37:44;7.00;99.90
11991;DHT22;6055;52.522;13.446;2022-11-15T08:40:10;7.10;99.90
11991;DHT22;6055;52.522;13.446;2022-11-15T08:42:36;7.10;99.90
11991;DHT22;6055;52.522;13.446;2022-11-15T08:45:02;7.10;99.90
11991;DHT22;6055;52.522;13.446;2022-11-15T08:47:28;7.20;99.90
11991;DHT22;6055;52.522;13.446;2022-11-15T08:49:54;7.20;99.90
11991;DHT22;6055;52.522;13.446;2022-11-15T08:52:20;7.20;99.90
11991;DHT22;6055;52.522;13.446;2022-11-15T08:54:46;7.30;99.90
11991;DHT22;6055;52.522;13.446;2022-11-15T08:57:12;7.40;99.90
11991;DHT22;6055;52.522;13.446;2022-11-15T08:59:37;7.40;99.90
11991;DHT22;6055;52.522;13.446;2022-11-15T09:02:03;7.40;99.90
11991;DHT22;6055;52.522;13.446;2022-11-15T09:04:29;7.50;99.90
11991;DHT22;6055;52.522;13.446;2022-11-15T09:06:54;7.50;99.90
11991;DHT22;6055;52.522;13.446;2022-11-15T09:09:20;7.60;99.90
11991;DHT22;6055;52.522;13.446;2022-11-15T09:11:45;7.60;99.90
11991;DHT22;6055;52.522;13.446;2022-11-15T09:14:12;7.60;99.90
11991;DHT22;6055;52.522;13.446;2022-11-15T09:16:37;7.70;99.90
11991;DHT22;6055;52.522;13.446;2022-11-15T09:19:03;7.70;99.90
11991;DHT22;6055;52.522;13.446;2022-11-15T09:21:29;7.80;99.90
11991;DHT22;6055;52.522;13.446;2022-11-15T09:23:55;7.80;99.90
11991;DHT22;6055;52.522;13.446;2022-11-15T09:26:20;7.90;99.90
11991;DHT22;6055;52.522;13.446;2022-11-15T09:28:46;7.90;99.90
11991;DHT22;6055;52.522;13.446;2022-11-15T09:31:11;8.00;99.90
11991;DHT22;6055;52.522;13.446;2022-11-15T09:33:37;8.00;99.90
11991;DHT22;6055;52.522;13.446;2022-11-15T09:36:05;8.10;99.90
11991;DHT22;6055;52.522;13.446;2022-11-15T09:38:32;8.10;99.90
11991;DHT22;6055;52.522;13.446;2022-11-15T09:44:20;8.20;99.90
11991;DHT22;6055;52.522;13.446;2022-11-15T09:49:30;8.40;99.90
11991;DHT22;6055;52.522;13.446;2022-11-15T09:51:56;8.40;99.90
11991;DHT22;6055;52.522;13.446;2022-11-15T09:54:34;8.50;99.90
11991;DHT22;6055;52.522;13.446;2022-11-15T10:05:28;8.70;99.90
11991;DHT22;6055;52.522;13.446;2022-11-15T10:08:03;8.80;99.90
11991;DHT22;6055;52.522;13.446;2022-11-15T10:10:48;8.90;99.90
11991;DHT22;6055;52.522;13.446;2022-11-15T10:13:24;9.00;99.90
11991;DHT22;6055;52.522;13.446;2022-11-15T10:15:53;9.00;99.90
11991;DHT22;6055;52.522;13.446;2022-11-15T10:18:36;9.00;99.90
11991;DHT22;6055;52.522;13.446;2022-11-15T10:21:16;9.10;99.90
11991;DHT22;6055;52.522;13.446;2022-11-15T10:23:42;9.20;99.90
11991;DHT22;6055;52.522;13.446;2022-11-15T10:26:11;9.20;99.90
11991;DHT22;6055;52.522;13.446;2022-11-15T10:28:38;9.20;99.90
11991;DHT22;6055;52.522;13.446;2022-11-15T10:31:24;9.30;99.90
11991;DHT22;6055;52.522;13.446;2022-11-15T10:33:51;9.40;99.90
11991;DHT22;6055;52.522;13.446;2022-11-15T10:36:21;9.40;99.90
11991;DHT22;6055;52.522;13.446;2022-11-15T10:43:41;9.60;99.90
11991;DHT22;6055;52.522;13.446;2022-11-15T10:46:22;9.60;99.90
11991;DHT22;6055;52.522;13.446;2022-11-15T10:48:48;9.70;99.90
11991;DHT22;6055;52.522;13.446;2022-11-15T10:51:24;9.70;99.90
11991;DHT22;6055;52.522;13.446;2022-11-15T10:53:57;9.70;99.90
11991;DHT22;6055;52.522;13.446;2022-11-15T10:56:26;9.70;99.90
11991;DHT22;6055;52.522;13.446;2022-11-15T10:58:54;9.80;99.90
11991;DHT22;6055;52.522;13.446;2022-11-15T11:01:25;9.80;99.90
11991;DHT22;6055;52.522;13.446;2022-11-15T11:06:28;9.90;99.90
11991;DHT22;6055;52.522;13.446;2022-11-15T11:08:55;10.00;99.90
11991;DHT22;6055;52.522;13.446;2022-11-15T11:11:21;10.00;99.90
11991;DHT22;6055;52.522;13.446;2022-11-15T11:13:47;10.00;99.90
11991;DHT22;6055;52.522;13.446;2022-11-15T11:21:23;10.20;99.90
11991;DHT22;6055;52.522;13.446;2022-11-15T11:24:34;10.20;99.90
11991;DHT22;6055;52.522;13.446;2022-11-15T11:27:37;10.30;99.90
11991;DHT22;6055;52.522;13.446;2022-11-15T11:30:32;10.30;99.90
11991;DHT22;6055;52.522;13.446;2022-11-15T11:33:17;10.40;99.90
11991;DHT22;6055;52.522;13.446;2022-11-15T11:36:05;10.50;99.90
11991;DHT22;6055;52.522;13.446;2022-11-15T11:41:53;10.60;99.90
11991;DHT22;6055;52.522;13.446;2022-11-15T11:44:34;10.60;99.90
11991;DHT22;6055;52.522;13.446;2022-11-15T11:47:10;10.70;99.90
11991;DHT22;6055;52.522;13.446;2022-11-15T11:52:34;10.80;99.90
11991;DHT22;6055;52.522;13.446;2022-11-15T11:57:54;10.90;99.90
11991;DHT22;6055;52.522;13.446;2022-11-15T12:00:23;10.90;99.90
11991;DHT22;6055;52.522;13.446;2022-11-15T12:03:22;10.90;99.90
11991;DHT22;6055;52.522;13.446;2022-11-15T12:05:54;11.00;99.90
11991;DHT22;6055;52.522;13.446;2022-11-15T12:08:45;11.10;99.90
11991;DHT22;6055;52.522;13.446;2022-11-15T12:11:28;11.10;99.90
11991;DHT22;6055;52.522;13.446;2022-11-15T12:14:00;11.10;99.90
11991;DHT22;6055;52.522;13.446;2022-11-15T12:16:28;11.20;99.90
11991;DHT22;6055;52.522;13.446;2022-11-15T12:18:58;11.20;99.90
11991;DHT22;6055;52.522;13.446;2022-11-15T12:21:44;11.30;99.90
11991;DHT22;6055;52.522;13.446;2022-11-15T12:24:18;11.30;99.90
11991;DHT22;6055;52.522;13.446;2022-11-15T12:26:55;11.30;99.90
11991;DHT22;6055;52.522;13.446;2022-11-15T12:29:38;11.30;99.90
11991;DHT22;6055;52.522;13.446;2022-11-15T12:32:10;11.40;99.90
11991;DHT22;6055;52.522;13.446;2022-11-15T12:34:45;11.70;99.90
11991;DHT22;6055;52.522;13.446;2022-11-15T12:42:40;14.90;99.90
11991;DHT22;6055;52.522;13.446;2022-11-15T12:45:29;15.90;99.90
11991;DHT22;6055;52.522;13.446;2022-11-15T12:58:57;18.60;99.90
11991;DHT22;6055;52.522;13.446;2022-11-15T13:04:23;18.90;99.90
11991;DHT22;6055;52.522;13.446;2022-11-15T13:06:59;18.90;99.40
11991;DHT22;6055;52.522;13.446;2022-11-15T13:12:10;19.00;99.90
11991;DHT22;6055;52.522;13.446;2022-11-15T13:14:54;18.90;98.50
11991;DHT22;6055;52.522;13.446;2022-11-15T13:17:22;18.50;98.00
11991;DHT22;6055;52.522;13.446;2022-11-15T13:20:00;17.70;99.90
11991;DHT22;6055;52.522;13.446;2022-11-15T13:22:27;16.80;99.90
11991;DHT22;6055;52.522;13.446;2022-11-15T13:28:27;15.20;99.90
11991;DHT22;6055;52.522;13.446;2022-11-15T13:30:56;14.90;99.90
11991;DHT22;6055;52.522;13.446;2022-11-15T13:33:37;15.00;99.90
11991;DHT22;6055;52.522;13.446;2022-11-15T13:36:12;15.30;99.90
11991;DHT22;6055;52.522;13.446;2022-11-15T13:38:40;15.70;99.90
11991;DHT22;6055;52.522;13.446;2022-11-15T13:41:33;16.00;99.90
11991;DHT22;6055;52.522;13.446;2022-11-15T13:44:00;16.20;99.90
11991;DHT22;6055;52.522;13.446;2022-11-15T13:46:35;16.40;99.90
11991;DHT22;6055;52.522;13.446;2022-11-15T13:49:07;16.40;99.90
11991;DHT22;6055;52.522;13.446;2022-11-15T13:51:43;16.30;99.90
11991;DHT22;6055;52.522;13.446;2022-11-15T13:56:37;16.20;99.90
11991;DHT22;6055;52.522;13.446;2022-11-15T14:01:57;15.80;99.90
11991;DHT22;6055;52.522;13.446;2022-11-15T14:04:25;15.50;99.90
11991;DHT22;6055;52.522;13.446;2022-11-15T14:06:56;15.20;99.90
11991;DHT22;6055;52.522;13.446;2022-11-15T14:09:30;14.90;99.90
11991;DHT22;6055;52.522;13.446;2022-11-15T14:12:00;14.90;99.90
11991;DHT22;6055;52.522;13.446;2022-11-15T14:14:27;14.70;99.90
11991;DHT22;6055;52.522;13.446;2022-11-15T14:17:02;14.70;99.90
11991;DHT22;6055;52.522;13.446;2022-11-15T14:22:24;14.80;99.90
11991;DHT22;6055;52.522;13.446;2022-11-15T14:25:27;14.70;99.90
11991;DHT22;6055;52.522;13.446;2022-11-15T14:28:14;14.70;99.90
11991;DHT22;6055;52.522;13.446;2022-11-15T14:30:40;14.70;99.90
11991;DHT22;6055;52.522;13.446;2022-11-15T14:33:19;14.60;99.90
11991;DHT22;6055;52.522;13.446;2022-11-15T14:35:45;14.40;99.90
11991;DHT22;6055;52.522;13.446;2022-11-15T14:38:11;14.30;99.90
11991;DHT22;6055;52.522;13.446;2022-11-15T14:40:36;14.30;99.90
11991;DHT22;6055;52.522;13.446;2022-11-15T14:43:02;13.90;99.90
11991;DHT22;6055;52.522;13.446;2022-11-15T14:45:27;13.60;99.90
11991;DHT22;6055;52.522;13.446;2022-11-15T14:47:53;13.30;99.90
11991;DHT22;6055;52.522;13.446;2022-11-15T14:50:20;13.00;99.90
11991;DHT22;6055;52.522;13.446;2022-11-15T14:52:46;12.70;99.90
11991;DHT22;6055;52.522;13.446;2022-11-15T14:55:19;12.50;99.90
11991;DHT22;6055;52.522;13.446;2022-11-15T14:57:45;12.20;99.90
11991;DHT22;6055;52.522;13.446;2022-11-15T15:00:12;12.00;99.90
11991;DHT22;6055;52.522;13.446;2022-11-15T15:02:38;11.80;99.90
11991;DHT22;6055;52.522;13.446;2022-11-15T15:07:43;11.50;99.90
11991;DHT22;6055;52.522;13.446;2022-11-15T15:10:09;11.40;99.90
11991;DHT22;6055;52.522;13.446;2022-11-15T15:12:34;11.30;99.90
11991;DHT22;6055;52.522;13.446;2022-11-15T15:15:00;11.20;99.90
11991;DHT22;6055;52.522;13.446;2022-11-15T15:17:25;11.20;99.90
11991;DHT22;6055;52.522;13.446;2022-11-15T15:19:51;11.00;99.90
11991;DHT22;6055;52.522;13.446;2022-11-15T15:22:18;10.90;99.90
11991;DHT22;6055;52.522;13.446;2022-11-15T15:24:45;10.80;99.90
11991;DHT22;6055;52.522;13.446;2022-11-15T15:27:11;10.70;99.90
11991;DHT22;6055;52.522;13.446;2022-11-15T15:29:38;10.60;99.90
11991;DHT22;6055;52.522;13.446;2022-11-15T15:32:04;10.50;99.90
11991;DHT22;6055;52.522;13.446;2022-11-15T15:34:29;10.50;99.90
11991;DHT22;6055;52.522;13.446;2022-11-15T15:37:25;10.50;99.90
11991;DHT22;6055;52.522;13.446;2022-11-15T15:39:52;10.40;99.90
11991;DHT22;6055;52.522;13.446;2022-11-15T15:42:18;10.30;99.90
11991;DHT22;6055;52.522;13.446;2022-11-15T15:44:45;10.20;99.90
11991;DHT22;6055;52.522;13.446;2022-11-15T15:47:21;10.20;99.90
11991;DHT22;6055;52.522;13.446;2022-11-15T15:49:48;10.10;99.90
11991;DHT22;6055;52.522;13.446;2022-11-15T15:52:14;10.10;99.90
11991;DHT22;6055;52.522;13.446;2022-11-15T15:54:40;10.00;99.90
11991;DHT22;6055;52.522;13.446;2022-11-15T15:57:07;10.00;99.90
11991;DHT22;6055;52.522;13.446;2022-11-15T15:59:33;10.00;99.90
11991;DHT22;6055;52.522;13.446;2022-11-15T16:01:58;10.10;99.90
11991;DHT22;6055;52.522;13.446;2022-11-15T16:04:24;10.10;99.90
11991;DHT22;6055;52.522;13.446;2022-11-15T16:06:50;10.10;99.90
11991;DHT22;6055;52.522;13.446;2022-11-15T16:09:18;10.10;99.90
11991;DHT22;6055;52.522;13.446;2022-11-15T16:12:04;10.10;99.90
11991;DHT22;6055;52.522;13.446;2022-11-15T16:14:31;10.10;99.90
11991;DHT22;6055;52.522;13.446;2022-11-15T16:16:56;10.00;99.90
11991;DHT22;6055;52.522;13.446;2022-11-15T16:19:22;10.00;99.90
11991;DHT22;6055;52.522;13.446;2022-11-15T16:21:47;10.00;99.90
11991;DHT22;6055;52.522;13.446;2022-11-15T16:24:13;10.00;99.90
11991;DHT22;6055;52.522;13.446;2022-11-15T16:26:38;10.00;99.90
11991;DHT22;6055;52.522;13.446;2022-11-15T16:29:04;9.90;99.90
11991;DHT22;6055;52.522;13.446;2022-11-15T16:31:29;9.90;99.90
11991;DHT22;6055;52.522;13.446;2022-11-15T16:33:55;9.90;99.90
11991;DHT22;6055;52.522;13.446;2022-11-15T16:36:24;9.90;99.90
11991;DHT22;6055;52.522;13.446;2022-11-15T16:38:50;9.80;99.90
11991;DHT22;6055;52.522;13.446;2022-11-15T16:41:16;9.80;99.90
11991;DHT22;6055;52.522;13.446;2022-11-15T16:43:44;9.80;99.90
11991;DHT22;6055;52.522;13.446;2022-11-15T16:46:19;9.80;99.90
11991;DHT22;6055;52.522;13.446;2022-11-15T16:48:45;9.70;99.90
11991;DHT22;6055;52.522;13.446;2022-11-15T16:51:11;9.70;99.90
11991;DHT22;6055;52.522;13.446;2022-11-15T16:53:37;9.70;99.90
11991;DHT22;6055;52.522;13.446;2022-11-15T16:56:03;9.60;99.90
11991;DHT22;6055;52.522;13.446;2022-11-15T16:58:28;9.50;99.90
11991;DHT22;6055;52.522;13.446;2022-11-15T17:00:55;9.40;99.90
11991;DHT22;6055;52.522;13.446;2022-11-15T17:03:22;9.40;99.90
11991;DHT22;6055;52.522;13.446;2022-11-15T17:05:49;9.40;99.90
11991;DHT22;6055;52.522;13.446;2022-11-15T17:08:14;9.40;99.90
11991;DHT22;6055;52.522;13.446;2022-11-15T17:10:40;9.40;99.90
11991;DHT22;6055;52.522;13.446;2022-11-15T17:13:09;9.30;99.90
11991;DHT22;6055;52.522;13.446;2022-11-15T17:15:36;9.30;99.90
11991;DHT22;6055;52.522;13.446;2022-11-15T17:18:01;9.30;99.90